Sugar Bush, Minnesota
Current Conditions -  °F | °C
As of 4:33 AM on Friday 24 Oct 2014 (Local Time) from KBJI Reporting Station
Clear Clear  
Wind Chill: 12°   Ceiling: Unl
Heat Index: 12°   Visibility: 10mi
Dew Point:   Wind: 7mph
Humidity: 68%   Direction: 190°S
Pressure: 29.8"   Gusts: NA
Location:  47.5271°N, 94.7611°W
Report Text: KBJI 240933Z AUTO 19006KT 10SM CLR 12/06 A2980 RMK AO2 T01160059
Loading
Personal Weather Stations






























Interactive Weather Map
Tropical Storm Tracking
New forecast layout! Learn more

10-Day Weather Forecast

Advertisements
Track Severe Weather on mobile